Terminal Aerodrome Forecast
Issued by NWS Greer, SC

Home | Current Version | Previous Version | Text Only | Print | Product List | Glossary On
Versions: 1 2 3 4 5 6 7 8 9 10 11 12 13 14 15 16 17 18 19 20 21 22 23 24 25 26
000
FTUS42 KGSP 302337
TAFAVL
TAF
KAVL 302337Z 3100/3124 16004KT P6SM -SHRA SCT040 OVC100
      TEMPO 3100/3102 5SM SHRA BR BKN040
     FM310300 26003KT P6SM OVC040
     FM310500 00000KT 5SM BR OVC020
     FM310800 00000KT 1SM BR OVC005
      TEMPO 3108/3112 1/4SM FG VV001
     FM311300 34004KT 3SM BR BKN005
     FM311500 01004KT P6SM BKN050
     FM311900 08003KT P6SM BKN060=

USA.gov is the U.S. government's official web portal to all federal, state and local government web resources and services.